• Join FlightAware (Why Join?)
  • Login
  • US Flag 
12:14AM EDT


 

Airport Tracker/Info


-or-


 

Live Flight TrackerFlight Track Log ✈ RPA3869 ✈ 17-May-2013 ✈ KMYR - KEWR

Flight Track Log - Related Links

Times and Time Zones

All times are in EDT time to prevent confusion due to time zone crossing. See the RPA3869 flight status page for this flight to view local times or setup timezone preferences in your user account.

Time Position Orientation Groundspeed Altitude Reporting Facility
EDT Latitude Longitude Course Direction KTS MPH feet Rate Location/Type
12:28PM 33.7636 -78.7283 52° Northeast 244 281 8,000  Level Jacksonville Center
12:29PM 34.0086 -78.3977 46° Northeast  Level FlightAware Approximate
12:29PM 33.8119 -78.6783 41° Northeast 252 290 9,900  Level Jacksonville Center
12:30PM 34.0634 -78.3066 59° Northeast  Level FlightAware Approximate
12:30PM 33.8703 -78.6156 42° Northeast 264 304 10,700  Level Jacksonville Center
12:31PM 34.1215 -78.2281 56° Northeast  Level FlightAware Approximate
12:31PM 33.9242 -78.5428 48° Northeast 281 323 12,300  Level Jacksonville Center
12:32PM 34.1738 -78.1339 56° Northeast  Level FlightAware Approximate
12:32PM 33.9736 -78.4628 53° Northeast 286 329 13,900  Level Jacksonville Center
12:33PM 34.2340 -78.0489 52° Northeast  Level FlightAware Approximate
12:34PM 34.0786 -78.3022 52° Northeast 288 331 17,000  Level Washington Center
12:35PM 34.1283 -78.2261 52° Northeast 288 331 18,000 1,080 Climbing Washington Center
12:36PM 34.1758 -78.1522 52° Northeast 288 331 19,200 1,140 Climbing Washington Center
12:37PM 34.2275 -78.0786 50° Northeast 288 331 20,300 960 Climbing Washington Center
12:38PM 34.2664 -78.0069 57° Northeast 283 326 21,200 780 Climbing Washington Center
12:39PM 34.3222 -77.9256 50° Northeast 283 326 22,000 720 Climbing Washington Center
12:40PM 34.3797 -77.8694 39° Northeast 278 320 22,700 720 Climbing Washington Center
12:41PM 34.4572 -77.8514 11° North 265 305 23,500 720 Climbing Washington Center
12:42PM 34.5328 -77.8333 11° North 265 305 24,200 600 Climbing Washington Center
12:43PM 34.6081 -77.8150 11° North 270 311 24,800 300 Climbing Washington Center
12:44PM 34.6878 -77.7944 12° North 275 316 24,900 60 Climbing Washington Center
12:45PM 34.7717 -77.7742 11° North 287 330 25,000  Climbing Washington Center
12:46PM 34.8472 -77.7508 14° North 298 343 25,000  Level Washington Center
12:47PM 34.9353 -77.7303 11° North 303 349 25,000  Level Washington Center
12:48PM 35.0231 -77.7097 11° North 315 362 25,000  Level Washington Center
12:49PM 35.1133 -77.6867 12° North 321 369 25,000  Level Washington Center
12:50PM 35.2075 -77.6614 12° North 326 375 25,000  Level Washington Center
12:51PM 35.2936 -77.6381 12° North 326 375 25,000  Level Washington Center
12:52PM 35.3878 -77.6175 10° North 326 375 25,000  Level Washington Center
12:53PM 35.4778 -77.5942 12° North 331 381 25,000  Level Washington Center
12:54PM 35.5806 -77.5689 11° North 338 389 25,000  Level Washington Center
12:55PM 35.6728 -77.5456 12° North 338 389 25,000  Level Washington Center
12:56PM 35.7628 -77.5219 12° North 331 381 25,000  Level Washington Center
12:57PM 35.8550 -77.5011 10° North 331 381 25,000  Level Washington Center
12:58PM 35.9450 -77.4778 12° North 331 381 25,000  Level Washington Center
12:59PM 36.0372 -77.4542 12° North 331 381 25,000  Level Washington Center
01:00PM 36.1294 -77.4308 12° North 331 381 25,000  Level Washington Center
01:01PM 36.2069 -77.4094 13° North 328 377 25,000  Level Washington Center
01:02PM 36.2992 -77.3858 12° North 323 372 25,000  Level Washington Center
01:03PM 36.3914 -77.3619 12° North 323 372 25,000  Level Washington Center
01:04PM 36.4833 -77.3383 12° North 329 379 25,000  Level Washington Center
01:05PM 36.5756 -77.3144 12° North 334 384 25,000  Level Washington Center
01:06PM 36.6656 -77.2906 12° North 334 384 25,000  Level Washington Center
01:07PM 36.7617 -77.2772 North 334 384 25,000  Level Washington Center
01:08PM 36.8622 -77.2481 13° North 334 384 25,000  Level Washington Center
01:09PM 36.9442 -77.2214 15° North 334 384 25,000  Level Washington Center
01:10PM 37.0486 -77.1950 11° North 334 384 25,000  Level Washington Center
01:11PM 37.1283 -77.1731 12° North 334 384 25,000 -420 Level Washington Center
01:12PM 37.2331 -77.1467 11° North 334 384 24,200 -900 Descending Washington Center
01:13PM 37.3189 -77.1222 13° North 347 399 23,300 -600 Descending Washington Center
01:14PM 37.4153 -77.0667 25° Northeast 347 399 23,000 -180 Descending Washington Center
01:15PM 37.4931 -77.0211 25° Northeast 342 394 23,000  Level Washington Center
01:16PM 37.5878 -76.9650 25° Northeast 342 394 23,000  Level Washington Center
01:17PM 37.6758 -76.9117 26° Northeast 342 394 23,000  Level Washington Center
01:18PM 37.7619 -76.8578 26° Northeast 342 394 23,000  Level Washington Center
01:19PM 37.8500 -76.8067 25° Northeast 347 399 23,000  Level Washington Center
01:20PM 37.9403 -76.7528 25° Northeast 342 394 23,000  Level Washington Center
01:21PM 38.0283 -76.7017 25° Northeast 342 394 23,000 -480 Level Washington Center
01:22PM 38.1100 -76.6578 23° Northeast 347 399 22,100 -1,140 Descending Washington Center
01:23PM 38.1778 -76.5558 50° Northeast 352 405 20,800 -1,380 Descending Washington Center
01:24PM 38.2472 -76.4564 48° Northeast 358 412 19,500 -1,500 Descending Washington Center
01:25PM 38.3311 -76.3858 33° Northeast 365 420 17,800 -1,620 Descending Washington Center
01:26PM 38.4292 -76.3575 13° North 351 404 16,300 -1,620 Descending Washington Center
01:27PM 38.5192 -76.3347 11° North 340 391 14,700 -1,620 Descending Washington Center
01:28PM 38.6047 -76.3064 15° North 328 377 13,200 -840 Descending Washington Center
01:29PM 38.6925 -76.2806 13° North 322 371 13,000 -60 Descending Washington Center
01:30PM 38.7803 -76.2519 14° North 317 365 13,100 -360 Climbing Washington Center
01:31PM 38.8700 -76.2236 14° North 317 365 12,300 -960 Descending Washington Center
01:32PM 38.9536 -76.2003 12° North 317 365 11,300 -660 Descending Washington Center
01:33PM 39.0369 -76.1742 14° North 312 359 11,000 -240 Descending Washington Center
01:34PM 39.1331 -76.1428 14° North 320 368 10,900 -60 Descending Washington Center
01:35PM 39.2164 -76.1139 15° North 314 361 10,900  Level Washington Center
01:36PM 39.2958 -76.0689 24° Northeast 308 354 10,900  Level Washington Center
01:37PM 39.3547 -75.9700 52° Northeast 314 361 10,900  Level Washington Center
01:39PM 39.4667 -75.7500 57° Northeast 338 389 11,000  Climbing Philadelphia TRACON
01:40PM 39.5000 -75.6667 63° Northeast 339 390 11,000  Level Philadelphia TRACON
01:41PM 39.5500 -75.5667 57° Northeast 338 389 11,000  Level Philadelphia TRACON
01:42PM 39.6000 -75.4833 52° Northeast 337 388 11,000  Level Philadelphia TRACON
01:43PM 39.6667 -75.3667 53° Northeast 337 388 11,000  Level Philadelphia TRACON
01:44PM 39.7167 -75.2667 57° Northeast 339 390 11,000 -180 Level Philadelphia TRACON
01:45PM 39.7667 -75.1667 57° Northeast 323 372 10,700 -720 Descending Philadelphia TRACON
01:46PM 39.8167 -75.0833 52° Northeast 296 341 9,600 -1,140 Descending Philadelphia TRACON
01:47PM 39.8667 -74.9667 61° Northeast 287 330 8,300 -1,140 Descending Philadelphia TRACON
01:48PM 39.9167 -74.9167 37° Northeast 268 308 7,400 -540 Descending Philadelphia TRACON
01:50PM 39.9833 -74.8000 53° Northeast 266 306 7,000 -180 Descending New York TRACON
01:51PM 40.0333 -74.7333 46° Northeast 270 311 7,000  Level New York TRACON
01:52PM 40.0833 -74.6500 52° Northeast 272 313 7,000  Level New York TRACON
01:53PM 40.1333 -74.5833 46° Northeast 273 314 7,100  Climbing New York TRACON
01:53PM 40.1833 -74.5167 46° Northeast 271 312 7,100 -420 Level New York TRACON
01:55PM 40.2500 -74.4500 37° Northeast 259 298 6,300 -720 Descending New York TRACON
01:56PM 40.3000 -74.4167 27° Northeast 232 267 5,700 -960 Descending New York TRACON
01:57PM 40.3667 -74.3667 30° Northeast 250 288 4,400 -1,320 Descending New York TRACON
01:58PM 40.4333 -74.3333 21° North 243 280 3,100 -720 Descending New York TRACON
01:59PM 40.4833 -74.3000 27° Northeast 220 253 3,000 -60 Descending New York TRACON
02:00PM 40.5333 -74.2667 27° Northeast 200 230 3,000  Level New York TRACON